createdAt,value
2019-05-30T00:01:00.053Z,4.14
2019-05-30T00:03:29.337Z,4.14
2019-05-30T00:05:58.774Z,4.14
2019-05-30T00:08:28.339Z,4.11
2019-05-30T00:10:58.529Z,4.08
2019-05-30T00:13:27.974Z,4.05
2019-05-30T00:15:58.665Z,4.03
2019-05-30T00:18:28.087Z,4.02
2019-05-30T00:20:58.738Z,3.99
2019-05-30T00:23:28.292Z,3.99
2019-05-30T00:25:57.617Z,3.96
2019-05-30T00:28:27.470Z,3.92
2019-05-30T00:30:58.250Z,3.88
2019-05-30T00:33:27.542Z,3.85
2019-05-30T00:35:57.666Z,3.78
2019-05-30T00:38:27.245Z,3.76
2019-05-30T00:40:57.781Z,3.69
2019-05-30T00:43:27.432Z,3.67
2019-05-30T00:45:57.932Z,3.64
2019-05-30T00:48:27.332Z,3.61
2019-05-30T00:50:58.261Z,3.58
2019-05-30T00:53:27.716Z,3.56
2019-05-30T00:55:57.125Z,3.52
2019-05-30T00:58:26.947Z,3.48
2019-05-30T01:00:56.810Z,3.41
2019-05-30T01:03:26.215Z,3.32
2019-05-30T01:05:56.678Z,3.24
2019-05-30T01:08:26.109Z,3.15
2019-05-30T01:10:56.868Z,3.11
2019-05-30T01:13:26.346Z,3.04
2019-05-30T01:15:56.857Z,3.01
2019-05-30T01:18:26.260Z,2.99
2019-05-30T01:20:57.016Z,2.95
2019-05-30T01:23:26.469Z,2.96
2019-05-30T01:25:57.233Z,2.95
2019-05-30T01:28:26.971Z,2.93
2019-05-30T01:31:00.297Z,2.91
2019-05-30T01:33:27.303Z,2.92
2019-05-30T01:35:57.769Z,2.93
2019-05-30T01:38:27.363Z,2.93
2019-05-30T01:40:57.685Z,2.95
2019-05-30T01:43:27.429Z,2.92
2019-05-30T01:45:58.029Z,2.92
2019-05-30T01:48:30.945Z,2.91
2019-05-30T01:51:00.411Z,2.91
2019-05-30T01:53:29.728Z,2.95
2019-05-30T01:56:00.690Z,2.96
2019-05-30T01:58:30.247Z,3.00
2019-05-30T02:01:16.338Z,3.11
2019-05-30T02:03:31.150Z,3.13
2019-05-30T02:06:01.035Z,3.10
2019-05-30T02:08:30.419Z,3.06
2019-05-30T02:11:01.294Z,3.02
2019-05-30T02:13:30.680Z,2.99
2019-05-30T02:15:59.964Z,2.95
2019-05-30T02:18:30.119Z,2.93
2019-05-30T02:20:59.589Z,2.92
2019-05-30T02:23:28.894Z,2.93
2019-05-30T02:25:59.969Z,2.91
2019-05-30T02:28:29.654Z,2.91
2019-05-30T02:31:00.510Z,2.90
2019-05-30T02:33:29.830Z,2.88
2019-05-30T02:36:01.019Z,2.88
2019-05-30T02:38:30.586Z,2.91
2019-05-30T02:41:01.292Z,2.96
2019-05-30T02:43:31.633Z,3.03
2019-05-30T02:46:01.064Z,3.13
2019-05-30T02:48:30.485Z,3.30
2019-05-30T02:51:01.001Z,3.40
2019-05-30T02:53:30.319Z,3.48
2019-05-30T02:56:01.309Z,3.54
2019-05-30T02:58:31.284Z,3.66
2019-05-30T03:01:01.945Z,3.74
2019-05-30T03:03:31.697Z,3.83
2019-05-30T03:06:01.919Z,3.88
2019-05-30T03:08:31.747Z,3.99
2019-05-30T03:11:02.412Z,4.04
2019-05-30T03:13:33.425Z,4.10
2019-05-30T03:16:04.509Z,4.32
2019-05-30T03:18:34.108Z,4.44
2019-05-30T03:21:05.453Z,4.67
2019-05-30T03:23:34.617Z,5.15
2019-05-30T03:26:04.926Z,5.82
2019-05-30T03:28:35.324Z,6.59
2019-05-30T03:31:14.695Z,7.30
2019-05-30T03:33:42.389Z,7.55
2019-05-30T03:36:19.984Z,7.57
2019-05-30T03:38:41.549Z,7.55
2019-05-30T03:41:12.133Z,7.61
2019-05-30T03:43:41.453Z,8.00
2019-05-30T03:46:16.202Z,8.36
2019-05-30T03:48:47.855Z,8.69
2019-05-30T03:51:20.106Z,8.99
2019-05-30T03:53:50.682Z,9.31
2019-05-30T03:56:23.972Z,9.75
2019-05-30T03:59:03.099Z,10.67
2019-05-30T04:01:56.465Z,11.71
2019-05-30T04:04:29.463Z,12.62
2019-05-30T04:07:03.693Z,13.58
2019-05-30T04:09:35.290Z,14.31
2019-05-30T04:12:16.731Z,14.68
2019-05-30T04:14:49.162Z,14.55
2019-05-30T04:17:19.969Z,13.85
2019-05-30T04:19:49.393Z,13.15
2019-05-30T04:22:19.622Z,12.63
2019-05-30T04:24:49.227Z,11.97
2019-05-30T04:27:18.721Z,11.40
2019-05-30T04:29:48.148Z,11.09
2019-05-30T04:32:18.774Z,10.85
2019-05-30T04:34:48.102Z,10.68
2019-05-30T04:37:18.939Z,10.71
2019-05-30T04:39:48.684Z,10.63
2019-05-30T04:42:20.608Z,10.95
2019-05-30T04:44:50.066Z,11.24
2019-05-30T04:47:20.806Z,11.71
2019-05-30T04:49:50.328Z,12.06
2019-05-30T04:52:24.086Z,12.71
2019-05-30T04:54:51.457Z,13.16
2019-05-30T04:57:25.747Z,13.62
2019-05-30T04:59:52.195Z,14.08
2019-05-30T05:02:23.288Z,14.36
2019-05-30T05:04:53.396Z,14.02
2019-05-30T05:07:22.760Z,13.99
2019-05-30T05:09:52.092Z,14.63
2019-05-30T05:12:22.413Z,15.45
2019-05-30T05:14:51.824Z,16.35
2019-05-30T05:17:21.292Z,17.33
2019-05-30T05:19:50.854Z,18.37
2019-05-30T05:22:21.158Z,19.62
2019-05-30T05:24:50.705Z,20.50
2019-05-30T05:27:20.154Z,20.90
2019-05-30T05:29:49.491Z,21.36
2019-05-30T05:32:18.963Z,22.05
2019-05-30T05:34:51.819Z,22.76
2019-05-30T05:37:19.354Z,23.46
2019-05-30T05:39:49.013Z,23.88
2019-05-30T05:42:18.350Z,24.06
2019-05-30T05:44:47.680Z,23.67
2019-05-30T05:47:18.378Z,23.80
2019-05-30T05:49:47.735Z,24.45
2019-05-30T05:52:17.057Z,24.03
2019-05-30T05:54:46.738Z,23.61
2019-05-30T05:57:16.736Z,23.99
2019-05-30T05:59:45.989Z,22.97
2019-05-30T06:02:17.541Z,21.10
2019-05-30T06:04:47.144Z,21.05
2019-05-30T06:07:16.448Z,21.66
2019-05-30T06:09:48.620Z,22.02
2019-05-30T06:12:17.957Z,23.12
2019-05-30T06:14:47.282Z,23.43
2019-05-30T06:17:17.360Z,23.69
2019-05-30T06:19:47.069Z,22.82
2019-05-30T06:22:17.395Z,22.93
2019-05-30T06:24:47.126Z,22.89
2019-05-30T06:27:17.717Z,22.64
2019-05-30T06:29:47.078Z,22.82
2019-05-30T06:32:16.973Z,22.45
2019-05-30T06:34:46.328Z,22.40
2019-05-30T06:37:15.631Z,22.34
2019-05-30T06:39:45.420Z,23.34
2019-05-30T06:42:14.779Z,23.47
2019-05-30T06:44:44.121Z,24.12
2019-05-30T06:47:13.926Z,23.94
2019-05-30T06:49:43.232Z,24.20
2019-05-30T06:52:12.555Z,24.86
2019-05-30T06:54:42.483Z,25.36
2019-05-30T06:57:11.768Z,25.67
2019-05-30T06:59:41.151Z,25.38
2019-05-30T07:02:11.536Z,25.13
2019-05-30T07:04:51.333Z,25.86
2019-05-30T07:07:12.762Z,26.96
2019-05-30T07:09:42.299Z,26.68
2019-05-30T07:12:12.102Z,27.14
2019-05-30T07:14:42.145Z,26.70
2019-05-30T07:17:11.533Z,26.76
2019-05-30T07:19:40.835Z,28.47
2019-05-30T07:22:10.727Z,29.28
2019-05-30T07:24:40.426Z,29.50
2019-05-30T07:27:09.721Z,27.99
2019-05-30T07:29:39.458Z,28.31
2019-05-30T07:32:09.028Z,27.16
2019-05-30T07:34:38.357Z,26.31
2019-05-30T07:37:09.230Z,26.25
2019-05-30T07:39:38.640Z,26.95
2019-05-30T07:42:07.931Z,27.23
2019-05-30T07:44:37.389Z,26.11
2019-05-30T07:47:06.756Z,26.63
2019-05-30T07:49:36.139Z,25.31
2019-05-30T07:52:05.641Z,25.99
2019-05-30T07:54:35.203Z,26.82
2019-05-30T07:57:04.604Z,25.97
2019-05-30T07:59:34.606Z,26.77
2019-05-30T08:02:04.379Z,27.85
2019-05-30T08:04:34.131Z,27.58
2019-05-30T08:07:03.638Z,28.12
2019-05-30T08:09:33.111Z,27.19
2019-05-30T08:12:02.418Z,28.84
2019-05-30T08:14:33.307Z,28.70
2019-05-30T08:17:02.658Z,28.05
2019-05-30T08:19:32.786Z,27.00
2019-05-30T08:22:03.047Z,25.70
2019-05-30T08:24:32.413Z,25.90
2019-05-30T08:27:01.759Z,25.83
2019-05-30T08:29:32.109Z,26.19
2019-05-30T08:32:01.932Z,25.58
2019-05-30T08:34:32.395Z,26.01
2019-05-30T08:37:02.267Z,26.23
2019-05-30T08:39:32.971Z,26.27
2019-05-30T08:42:02.283Z,25.59
2019-05-30T08:44:31.697Z,25.22
2019-05-30T08:47:01.183Z,23.91
2019-05-30T08:49:30.508Z,22.90
2019-05-30T08:51:59.994Z,22.15
2019-05-30T08:54:30.262Z,21.44
2019-05-30T08:56:59.626Z,20.68
2019-05-30T08:59:30.256Z,20.20
2019-05-30T09:01:59.667Z,20.72
2019-05-30T09:04:29.001Z,20.76
2019-05-30T09:06:58.400Z,20.48
2019-05-30T09:09:27.850Z,19.88
2019-05-30T09:11:57.164Z,19.57
2019-05-30T09:14:26.650Z,19.14
2019-05-30T09:16:57.078Z,18.61
2019-05-30T09:19:26.479Z,18.06
2019-05-30T09:21:56.288Z,18.07
2019-05-30T09:24:25.902Z,17.69
2019-05-30T09:26:55.271Z,17.44
2019-05-30T09:29:25.018Z,17.03
2019-05-30T09:31:54.399Z,16.82
2019-05-30T09:34:23.714Z,16.77
2019-05-30T09:36:53.225Z,16.77
2019-05-30T09:39:22.568Z,16.18
2019-05-30T09:41:51.950Z,15.68
2019-05-30T09:44:21.478Z,15.56
2019-05-30T09:46:50.973Z,15.80
2019-05-30T09:49:20.283Z,15.77
2019-05-30T09:51:51.105Z,16.10
2019-05-30T09:54:20.628Z,16.28
2019-05-30T09:56:51.092Z,16.49
2019-05-30T09:59:20.766Z,16.55
2019-05-30T10:01:50.295Z,16.55
2019-05-30T10:04:19.694Z,17.02
2019-05-30T10:06:49.149Z,17.85
2019-05-30T10:09:18.595Z,17.93
2019-05-30T10:11:47.900Z,18.20
2019-05-30T10:14:17.342Z,18.14
2019-05-30T10:16:50.663Z,18.13
2019-05-30T10:19:18.032Z,18.13
2019-05-30T10:21:47.315Z,18.33
2019-05-30T10:24:16.684Z,18.20
2019-05-30T10:26:47.167Z,18.18
2019-05-30T10:29:16.496Z,18.22
2019-05-30T10:31:46.493Z,17.51
2019-05-30T10:34:16.074Z,16.89
2019-05-30T10:36:47.137Z,16.69
2019-05-30T10:39:16.604Z,16.33
2019-05-30T10:41:47.480Z,16.19
2019-05-30T10:44:16.882Z,15.91
2019-05-30T10:46:47.563Z,15.64
2019-05-30T10:49:31.525Z,15.51
2019-05-30T10:51:49.639Z,15.36
2019-05-30T10:54:19.141Z,15.33
2019-05-30T10:56:49.863Z,15.17
2019-05-30T10:59:19.272Z,15.30
2019-05-30T11:01:50.217Z,14.94
2019-05-30T11:04:19.714Z,14.50
2019-05-30T11:07:10.391Z,14.16
2019-05-30T11:09:33.481Z,14.07
2019-05-30T11:12:02.994Z,14.18
2019-05-30T11:14:32.272Z,14.29
2019-05-30T11:17:01.577Z,14.30
2019-05-30T11:19:31.269Z,14.56
2019-05-30T11:22:00.597Z,14.86
2019-05-30T11:24:29.888Z,15.03
2019-05-30T11:27:00.142Z,15.49
2019-05-30T11:29:29.474Z,15.49
2019-05-30T11:31:59.098Z,15.23
2019-05-30T11:34:28.846Z,15.44
2019-05-30T11:36:59.344Z,15.55
2019-05-30T11:39:29.569Z,16.01
2019-05-30T11:41:59.552Z,16.28
2019-05-30T11:44:28.884Z,16.47
2019-05-30T11:46:58.220Z,16.85
2019-05-30T11:49:27.698Z,17.04
2019-05-30T11:51:57.893Z,17.46
2019-05-30T11:54:27.286Z,18.48
2019-05-30T11:56:58.142Z,19.47
2019-05-30T11:59:27.432Z,19.48
2019-05-30T12:01:56.742Z,18.99
2019-05-30T12:04:26.240Z,18.69
2019-05-30T12:06:56.749Z,18.64
2019-05-30T12:09:26.337Z,19.01
2019-05-30T12:11:59.217Z,19.22
2019-05-30T12:14:28.645Z,19.29
2019-05-30T12:16:58.023Z,19.65
2019-05-30T12:19:28.022Z,19.59
2019-05-30T12:21:57.689Z,19.42
2019-05-30T12:24:27.037Z,19.14
2019-05-30T12:26:56.616Z,18.98
2019-05-30T12:29:25.894Z,18.72
2019-05-30T12:31:57.529Z,18.56
2019-05-30T12:34:26.629Z,18.22
2019-05-30T12:36:56.409Z,18.36
2019-05-30T12:39:25.846Z,18.40
2019-05-30T12:41:56.799Z,18.12
2019-05-30T12:44:26.181Z,18.34
2019-05-30T12:46:55.609Z,17.41
2019-05-30T12:49:25.682Z,17.41
2019-05-30T12:51:56.155Z,17.37
2019-05-30T12:54:25.454Z,17.24
2019-05-30T12:56:56.552Z,17.27
2019-05-30T12:59:25.909Z,17.52
2019-05-30T13:01:55.235Z,17.46
2019-05-30T13:04:24.706Z,17.23
2019-05-30T13:06:55.866Z,17.07
2019-05-30T13:09:25.134Z,16.59
2019-05-30T13:11:56.369Z,16.30
2019-05-30T13:14:25.915Z,16.04
2019-05-30T13:16:55.648Z,16.16
2019-05-30T13:19:25.266Z,16.09
2019-05-30T13:21:55.410Z,16.17
2019-05-30T13:24:24.734Z,16.09
2019-05-30T13:26:55.586Z,16.04
2019-05-30T13:29:25.689Z,16.01
2019-05-30T13:31:56.249Z,16.34
2019-05-30T13:34:25.731Z,16.62
2019-05-30T13:36:55.128Z,16.92
2019-05-30T13:39:24.495Z,17.24
2019-05-30T13:41:53.949Z,17.64
2019-05-30T13:44:23.459Z,18.01
2019-05-30T13:46:52.781Z,18.25
2019-05-30T13:49:22.109Z,18.32
2019-05-30T13:51:51.715Z,18.19
2019-05-30T13:54:21.027Z,18.08
2019-05-30T13:56:50.379Z,18.08
2019-05-30T13:59:19.929Z,18.11
2019-05-30T14:01:49.251Z,17.88
2019-05-30T14:04:18.865Z,17.82
2019-05-30T14:06:49.970Z,17.61
2019-05-30T14:09:19.302Z,17.33
2019-05-30T14:11:49.248Z,17.15
2019-05-30T14:14:19.854Z,17.18
2019-05-30T14:16:49.139Z,17.30
2019-05-30T14:19:18.673Z,17.50
2019-05-30T14:21:48.561Z,17.75
2019-05-30T14:24:17.825Z,17.89
2019-05-30T14:26:49.096Z,18.09
2019-05-30T14:29:18.419Z,18.00
2019-05-30T14:31:47.723Z,17.84
2019-05-30T14:34:17.485Z,18.24
2019-05-30T14:36:46.830Z,18.24
2019-05-30T14:39:16.133Z,17.84
2019-05-30T14:41:46.063Z,17.84
2019-05-30T14:44:15.392Z,17.72
2019-05-30T14:46:44.679Z,17.90
2019-05-30T14:49:14.299Z,18.02
2019-05-30T14:51:43.599Z,18.04
2019-05-30T14:54:13.237Z,18.04
2019-05-30T14:56:43.253Z,18.14
2019-05-30T14:59:13.172Z,18.18
2019-05-30T15:01:42.398Z,18.18
2019-05-30T15:04:13.329Z,17.94
2019-05-30T15:06:42.749Z,17.97
2019-05-30T15:09:22.083Z,18.20
2019-05-30T15:11:45.710Z,18.25
2019-05-30T15:14:15.011Z,18.38
2019-05-30T15:16:44.335Z,18.23
2019-05-30T15:19:14.373Z,18.23
2019-05-30T15:21:43.839Z,18.12
2019-05-30T15:24:14.280Z,18.12
2019-05-30T15:26:44.256Z,18.27
2019-05-30T15:29:14.168Z,18.35
2019-05-30T15:31:43.460Z,18.25
2019-05-30T15:34:13.009Z,18.25
2019-05-30T15:36:42.350Z,18.44
2019-05-30T15:39:11.615Z,18.80
2019-05-30T15:41:41.054Z,18.76
2019-05-30T15:44:11.559Z,18.17
2019-05-30T15:46:40.861Z,17.75
2019-05-30T15:49:10.321Z,17.56
2019-05-30T15:51:39.686Z,17.56
2019-05-30T15:54:09.041Z,17.51
2019-05-30T15:56:38.663Z,17.51
2019-05-30T15:59:07.968Z,17.50
2019-05-30T16:01:37.270Z,17.70
2019-05-30T16:04:06.912Z,17.68
2019-05-30T16:06:36.219Z,17.68
2019-05-30T16:09:07.075Z,17.44
2019-05-30T16:11:37.136Z,17.13
2019-05-30T16:14:06.475Z,16.73
2019-05-30T16:16:40.247Z,16.38
2019-05-30T16:19:19.576Z,16.23
2019-05-30T16:21:38.018Z,16.12
2019-05-30T16:24:07.374Z,15.91
2019-05-30T16:26:36.914Z,15.74
2019-05-30T16:29:06.262Z,15.49
2019-05-30T16:31:35.587Z,15.49
2019-05-30T16:34:05.173Z,15.35
2019-05-30T16:36:34.520Z,15.19
2019-05-30T16:39:04.050Z,15.24
2019-05-30T16:41:33.512Z,15.10
2019-05-30T16:44:02.853Z,15.02
2019-05-30T16:46:32.184Z,15.02
2019-05-30T16:49:01.725Z,14.98
2019-05-30T16:51:31.032Z,14.84
2019-05-30T16:54:00.367Z,14.72
2019-05-30T16:56:29.845Z,14.65
2019-05-30T16:58:59.741Z,14.58
2019-05-30T17:01:29.100Z,14.48
2019-05-30T17:03:58.664Z,14.45
2019-05-30T17:06:27.998Z,14.56
2019-05-30T17:08:57.388Z,14.59
2019-05-30T17:11:27.036Z,14.70
2019-05-30T17:13:56.329Z,14.72
2019-05-30T17:16:26.269Z,14.71
2019-05-30T17:18:56.654Z,14.63
2019-05-30T17:21:26.789Z,14.49
2019-05-30T17:23:56.161Z,14.53
2019-05-30T17:26:25.690Z,14.49
2019-05-30T17:28:54.963Z,14.52
2019-05-30T17:31:24.267Z,14.56
2019-05-30T17:33:53.924Z,14.54
2019-05-30T17:36:24.177Z,14.59
2019-05-30T17:38:53.670Z,14.59
2019-05-30T17:41:23.133Z,14.51
2019-05-30T17:43:52.402Z,14.40
2019-05-30T17:46:21.745Z,14.36
2019-05-30T17:48:51.189Z,14.26
2019-05-30T17:51:21.809Z,14.23
2019-05-30T17:53:51.165Z,14.14
2019-05-30T17:56:21.947Z,14.11
2019-05-30T17:58:51.320Z,14.07
2019-05-30T18:01:20.681Z,14.06
2019-05-30T18:03:50.335Z,14.08
2019-05-30T18:06:20.371Z,14.04
2019-05-30T18:08:49.723Z,14.08
2019-05-30T18:11:19.262Z,14.07
2019-05-30T18:13:48.568Z,14.07
2019-05-30T18:16:17.828Z,14.05
2019-05-30T18:18:47.546Z,14.08
2019-05-30T18:21:16.854Z,14.08
2019-05-30T18:23:46.143Z,14.03
2019-05-30T18:26:15.810Z,14.04
2019-05-30T18:28:45.156Z,14.05
2019-05-30T18:31:14.472Z,14.14
2019-05-30T18:33:43.950Z,14.09
2019-05-30T18:36:13.254Z,14.08
2019-05-30T18:38:42.574Z,14.07
2019-05-30T18:41:15.824Z,14.03
2019-05-30T18:43:43.354Z,14.03
2019-05-30T18:46:12.664Z,14.03
2019-05-30T18:48:42.415Z,14.05
2019-05-30T18:51:11.953Z,14.03
2019-05-30T18:53:41.355Z,14.05
2019-05-30T18:56:10.871Z,14.10
2019-05-30T18:58:40.176Z,14.15
2019-05-30T19:01:09.510Z,14.14
2019-05-30T19:03:39.243Z,14.15
2019-05-30T19:06:08.622Z,14.19
2019-05-30T19:08:37.990Z,14.17
2019-05-30T19:11:07.489Z,14.12
2019-05-30T19:13:37.326Z,14.10
2019-05-30T19:16:06.720Z,14.11
2019-05-30T19:18:36.422Z,14.06
2019-05-30T19:21:05.826Z,14.11
2019-05-30T19:23:38.337Z,14.09
2019-05-30T19:26:06.830Z,14.10
2019-05-30T19:28:36.697Z,14.10
2019-05-30T19:31:06.071Z,14.05
2019-05-30T19:33:35.525Z,14.04
2019-05-30T19:36:04.832Z,14.04
2019-05-30T19:38:35.400Z,14.06
2019-05-30T19:41:05.286Z,14.07
2019-05-30T19:43:35.804Z,14.09
2019-05-30T19:46:05.249Z,14.10
2019-05-30T19:48:34.889Z,14.13
2019-05-30T19:51:04.196Z,14.14
2019-05-30T19:53:33.517Z,14.14
2019-05-30T19:56:04.232Z,14.19
2019-05-30T19:58:33.545Z,14.22
2019-05-30T20:01:02.857Z,14.25
2019-05-30T20:03:40.887Z,14.25
2019-05-30T20:06:03.321Z,14.24
2019-05-30T20:08:47.904Z,14.29
2019-05-30T20:11:03.899Z,14.28
2019-05-30T20:13:33.288Z,14.32
2019-05-30T20:16:02.565Z,14.28
2019-05-30T20:18:32.120Z,14.27
2019-05-30T20:21:01.487Z,14.30
2019-05-30T20:23:45.484Z,14.31
2019-05-30T20:26:02.461Z,14.31
2019-05-30T20:28:32.693Z,14.33
2019-05-30T20:31:02.047Z,14.33
2019-05-30T20:33:31.513Z,14.37
2019-05-30T20:36:00.827Z,14.36
2019-05-30T20:38:30.122Z,14.39
2019-05-30T20:40:59.670Z,14.42
2019-05-30T20:43:29.078Z,14.45
2019-05-30T20:45:58.406Z,14.50
2019-05-30T20:48:27.852Z,14.50
2019-05-30T20:50:57.198Z,14.50
2019-05-30T20:53:26.555Z,14.48
2019-05-30T20:55:56.215Z,14.45
2019-05-30T20:58:25.516Z,14.48
2019-05-30T21:00:55.894Z,14.48
2019-05-30T21:03:25.440Z,14.45
2019-05-30T21:05:55.532Z,14.48
2019-05-30T21:08:24.949Z,14.45
2019-05-30T21:10:55.923Z,14.48
2019-05-30T21:13:25.254Z,14.49
2019-05-30T21:15:56.620Z,14.50
2019-05-30T21:18:28.603Z,14.51
2019-05-30T21:20:57.960Z,14.51
2019-05-30T21:23:27.263Z,14.51
2019-05-30T21:25:57.425Z,14.50
2019-05-30T21:28:26.697Z,14.49
2019-05-30T21:30:56.034Z,14.49
2019-05-30T21:33:25.641Z,14.51
2019-05-30T21:35:55.114Z,14.49
2019-05-30T21:38:24.438Z,14.47
2019-05-30T21:40:54.037Z,14.48
2019-05-30T21:43:23.385Z,14.50
2019-05-30T21:45:52.667Z,14.48
2019-05-30T21:48:22.233Z,14.43
2019-05-30T21:50:51.584Z,14.44
2019-05-30T21:53:20.942Z,14.38
2019-05-30T21:55:50.507Z,14.41
2019-05-30T21:58:19.850Z,14.40
2019-05-30T22:01:22.212Z,14.43
2019-05-30T22:03:51.601Z,14.34
2019-05-30T22:06:21.055Z,14.26
2019-05-30T22:08:51.519Z,14.22
2019-05-30T22:11:21.566Z,14.14
2019-05-30T22:13:52.035Z,14.10
2019-05-30T22:16:21.522Z,14.05
2019-05-30T22:18:52.135Z,14.00
2019-05-30T22:21:21.663Z,14.00
2019-05-30T22:23:52.406Z,14.05
2019-05-30T22:26:21.971Z,14.11
2019-05-30T22:28:52.543Z,14.14
2019-05-30T22:31:22.383Z,14.15
2019-05-30T22:33:53.279Z,14.10
2019-05-30T22:36:22.716Z,14.07
2019-05-30T22:38:53.154Z,14.03
2019-05-30T22:41:23.141Z,13.99
2019-05-30T22:43:52.934Z,13.92
2019-05-30T22:46:22.581Z,13.82
2019-05-30T22:48:52.981Z,13.83
2019-05-30T22:51:22.403Z,13.89
2019-05-30T22:53:53.095Z,13.96
2019-05-30T22:56:22.774Z,14.01
2019-05-30T22:58:52.039Z,14.03
2019-05-30T23:01:21.538Z,14.11
2019-05-30T23:03:52.201Z,14.12
2019-05-30T23:06:22.474Z,14.14
2019-05-30T23:08:52.655Z,14.21
2019-05-30T23:11:21.980Z,14.20
2019-05-30T23:13:51.978Z,14.12
2019-05-30T23:16:21.549Z,14.08
2019-05-30T23:18:50.833Z,14.08
2019-05-30T23:21:20.133Z,14.12
2019-05-30T23:23:51.720Z,14.19
2019-05-30T23:26:21.106Z,14.19
2019-05-30T23:28:51.703Z,14.22
2019-05-30T23:31:21.365Z,14.24
2019-05-30T23:33:50.662Z,14.28
2019-05-30T23:36:19.945Z,14.30
2019-05-30T23:38:50.752Z,14.30
2019-05-30T23:41:20.111Z,14.27
2019-05-30T23:43:59.517Z,14.27
2019-05-30T23:46:20.605Z,14.31
2019-05-30T23:48:49.972Z,14.40
2019-05-30T23:51:19.293Z,14.36
2019-05-30T23:53:50.000Z,14.43
2019-05-30T23:56:19.455Z,14.43
2019-05-30T23:58:48.711Z,14.39
